CheckWX is a tool to help pilots better visualize weather data.  It is not intended as a substitute for an official pre-flight weather briefing.

21:04:26 UTC

KEGI METAR
Duke Field Airport
Crestview, Florida, USA
Current

8 mins ago

KEGI 232056Z AUTO 17007KT 10SM CLR 32/21 A3011 RMK AO2 SLP196 T03240212 57017 $
Observed
May-23 @ 20:56 UTC
Wind
  • 170° at 7 KTS
Visibility
10 SM
Flight Rules
VFR
Cloud Levels
  • Clear skies
Temperature
32°C / 90°F
Dewpoint
21°C / 70°F
Heat Index
36°C / 96°F
Humidity
52%
Altimeter
30.11" Hg
Pressure
1019.62 hPa
Previous

1 hour ago

KEGI 231956Z AUTO 00000KT 10SM FEW046 FEW190 32/21 A3013 RMK AO2 SLP202 T03150213 $
Observed
May-23 @ 19:56 UTC
Visibility
10 SM
Flight Rules
VFR
Cloud Levels
  • Few at 4,600' AGL
  • Few at 19,000' AGL
Temperature
32°C / 90°F
Dewpoint
21°C / 70°F
Heat Index
36°C / 96°F
Humidity
52%
Altimeter
30.13" Hg
Pressure
1020.32 hPa
Previous

2 hours ago

KEGI 231856Z AUTO 00000KT 10SM FEW075 FEW100 SCT160 SCT200 32/20 A3015 RMK AO2 SLP209 T03170203 $
Observed
May-23 @ 18:56 UTC
Visibility
10 SM
Flight Rules
VFR
Cloud Levels
  • Few at 7,500' AGL
  • Few at 10,000' AGL
  • Scattered at 16,000' AGL
  • Scattered at 20,000' AGL
Temperature
32°C / 90°F
Dewpoint
20°C / 68°F
Heat Index
34°C / 94°F
Humidity
49%
Altimeter
30.15" Hg
Pressure
1021.02 hPa